Time;durP1;ratioP1;P1;durP2;ratioP2;P2;SDS_P1;SDS_P2;PMS_P1;PMS_P2;Temp;Humidity;BMP_temperature;BMP_pressure;BME280_temperature;BME280_humidity;BME280_pressure;Samples;Min_cycle;Max_cycle;Signal;HPM_P1;HPM_P2
2022/08/07 00:01:27;;;;;;;2.55;1.05;;;18.50;55.50;;;;;;4940773;28;20032;-79
2022/08/07 00:03:52;;;;;;;1.70;1.03;;;18.50;55.60;;;;;;4953502;28;20113;-80
2022/08/07 00:06:18;;;;;;;2.17;1.02;;;18.40;55.60;;;;;;4938319;28;20435;-80
2022/08/07 00:08:44;;;;;;;1.90;1.07;;;18.40;55.80;;;;;;4938161;28;20223;-80
2022/08/07 00:11:10;;;;;;;1.67;1.00;;;18.40;55.90;;;;;;4958610;28;20030;-80
2022/08/07 00:13:36;;;;;;;1.58;1.00;;;18.30;56.00;;;;;;4934943;28;20204;-80
2022/08/07 00:16:04;;;;;;;1.30;1.20;;;18.30;56.30;;;;;;4953722;28;20042;-79
2022/08/07 00:18:30;;;;;;;1.98;1.10;;;18.20;56.30;;;;;;4962868;28;20034;-79
2022/08/07 00:20:59;;;;;;;1.98;1.30;;;18.20;56.40;;;;;;4952973;28;20730;-80
2022/08/07 00:23:25;;;;;;;1.60;1.00;;;18.20;56.60;;;;;;4947892;28;20022;-79
2022/08/07 00:25:52;;;;;;;1.13;0.95;;;18.10;56.60;;;;;;4965419;28;20108;-79
2022/08/07 00:28:19;;;;;;;2.60;1.00;;;18.10;56.80;;;;;;4935913;28;20031;-79
2022/08/07 00:30:45;;;;;;;1.45;1.08;;;18.00;56.90;;;;;;4946616;28;20507;-79
2022/08/07 00:33:11;;;;;;;1.85;1.25;;;18.00;56.90;;;;;;4952087;28;20357;-79
2022/08/07 00:35:36;;;;;;;2.80;1.20;;;17.90;57.00;;;;;;4952074;28;20794;-80
2022/08/07 00:38:03;;;;;;;2.30;1.10;;;17.90;57.20;;;;;;4939261;28;20567;-79
2022/08/07 00:40:29;;;;;;;2.15;1.10;;;17.90;57.30;;;;;;4963343;28;20019;-79
2022/08/07 00:42:55;;;;;;;1.10;1.00;;;17.80;57.30;;;;;;4929120;28;22457;-79
2022/08/07 00:45:21;;;;;;;2.27;1.20;;;17.80;57.40;;;;;;4960250;28;20018;-79
2022/08/07 00:47:48;;;;;;;1.65;1.20;;;17.70;57.40;;;;;;4943808;28;20468;-79
2022/08/07 00:50:14;;;;;;;2.25;1.10;;;17.60;57.70;;;;;;4978132;28;20488;-79
2022/08/07 00:52:40;;;;;;;2.10;1.10;;;17.60;57.90;;;;;;4947140;28;20700;-79
2022/08/07 00:55:07;;;;;;;2.40;1.20;;;17.50;58.70;;;;;;4959885;28;20066;-80
2022/08/07 00:57:33;;;;;;;1.57;1.20;;;17.50;58.10;;;;;;4965811;28;20035;-80
2022/08/07 00:59:58;;;;;;;2.08;1.15;;;17.40;58.10;;;;;;4939031;28;20270;-79
2022/08/07 01:02:25;;;;;;;2.40;1.20;;;17.40;58.20;;;;;;4960192;28;21167;-81
2022/08/07 01:04:52;;;;;;;2.60;1.20;;;17.30;58.30;;;;;;4959955;28;20028;-81
2022/08/07 01:07:21;;;;;;;2.00;1.13;;;17.30;58.40;;;;;;4944294;28;20359;-81
2022/08/07 01:09:47;;;;;;;1.95;1.17;;;17.20;58.80;;;;;;4938929;28;20092;-81
2022/08/07 01:12:15;;;;;;;3.33;1.10;;;17.20;58.70;;;;;;4947883;28;20320;-81
2022/08/07 01:14:41;;;;;;;1.70;1.20;;;17.20;59.00;;;;;;4945570;28;20039;-81
2022/08/07 01:17:08;;;;;;;1.95;1.20;;;17.10;59.00;;;;;;4958053;28;20026;-80
2022/08/07 01:19:34;;;;;;;3.10;1.30;;;17.00;59.10;;;;;;4964987;28;20030;-81
2022/08/07 01:22:00;;;;;;;1.48;1.10;;;17.00;59.10;;;;;;4950849;28;20030;-80
2022/08/07 01:24:27;;;;;;;1.20;1.10;;;16.90;59.20;;;;;;4948578;28;20336;-80
2022/08/07 01:26:53;;;;;;;3.33;1.30;;;16.90;59.40;;;;;;4949435;28;20043;-80
2022/08/07 01:29:23;;;;;;;1.33;1.20;;;16.90;59.50;;;;;;4937809;28;20494;-81
2022/08/07 01:31:50;;;;;;;1.50;1.10;;;16.80;59.70;;;;;;4980088;28;20015;-81
2022/08/07 01:34:19;;;;;;;2.28;1.30;;;16.80;59.60;;;;;;4949341;28;20160;-81
2022/08/07 01:36:49;;;;;;;1.60;1.13;;;16.70;59.60;;;;;;4956434;28;20030;-81
2022/08/07 01:39:15;;;;;;;1.70;1.08;;;16.70;59.80;;;;;;4943656;28;20399;-81
2022/08/07 01:41:44;;;;;;;1.52;1.02;;;16.70;59.90;;;;;;4956075;28;20436;-81
2022/08/07 01:44:11;;;;;;;1.73;1.10;;;16.70;60.00;;;;;;4935350;28;20369;-80
2022/08/07 01:46:39;;;;;;;1.25;1.10;;;16.60;60.10;;;;;;4965534;28;21108;-81
2022/08/07 01:49:05;;;;;;;1.33;1.10;;;16.60;60.30;;;;;;4946390;28;20073;-80
2022/08/07 01:51:31;;;;;;;1.60;1.30;;;16.50;60.70;;;;;;4959817;28;20240;-81
2022/08/07 01:54:02;;;;;;;1.50;1.17;;;16.50;60.30;;;;;;4951863;28;20573;-80
2022/08/07 01:56:39;;;;;;;2.10;1.10;;;16.40;60.40;;;;;;4950153;28;20763;-80
2022/08/07 01:59:17;;;;;;;1.03;0.90;;;16.40;60.90;;;;;;4960107;28;20046;-80
2022/08/07 02:01:49;;;;;;;1.65;1.13;;;16.30;61.10;;;;;;4944798;28;20419;-81
2022/08/07 02:04:29;;;;;;;2.40;1.27;;;16.30;60.80;;;;;;4955924;28;20618;-80
2022/08/07 02:06:58;;;;;;;1.55;1.00;;;16.20;61.30;;;;;;4964466;28;20308;-80
2022/08/07 02:09:27;;;;;;;1.63;1.15;;;16.20;60.80;;;;;;4936645;28;21049;-80
2022/08/07 02:11:55;;;;;;;1.97;1.10;;;16.10;61.10;;;;;;4962421;28;20435;-80
2022/08/07 02:14:23;;;;;;;1.65;1.17;;;16.10;61.20;;;;;;4960332;28;20621;-81
2022/08/07 02:16:51;;;;;;;2.50;1.20;;;16.00;61.30;;;;;;4941955;28;20606;-81
2022/08/07 02:19:17;;;;;;;1.50;1.30;;;16.00;61.30;;;;;;4954234;28;20646;-81
2022/08/07 02:21:44;;;;;;;2.10;1.15;;;15.90;61.30;;;;;;4949815;28;20399;-80
2022/08/07 02:24:12;;;;;;;2.20;1.33;;;16.00;61.60;;;;;;4946442;28;20027;-80
2022/08/07 02:26:39;;;;;;;1.38;1.17;;;15.90;61.70;;;;;;4949152;28;20066;-81
2022/08/07 02:29:07;;;;;;;1.38;1.17;;;15.90;61.80;;;;;;4961049;28;20031;-80
2022/08/07 02:31:34;;;;;;;1.98;1.33;;;15.80;61.90;;;;;;4930773;28;20029;-80
2022/08/07 02:34:03;;;;;;;2.50;1.35;;;15.80;62.00;;;;;;4953553;28;20044;-81
2022/08/07 02:36:29;;;;;;;1.60;1.10;;;15.80;62.10;;;;;;4954456;28;20050;-81
2022/08/07 02:38:57;;;;;;;1.52;1.20;;;15.80;62.10;;;;;;4957439;28;20046;-81
2022/08/07 02:41:24;;;;;;;1.70;1.20;;;15.70;62.30;;;;;;4954774;28;20125;-80
2022/08/07 02:43:51;;;;;;;1.52;1.20;;;15.70;62.30;;;;;;4966703;28;20398;-81
2022/08/07 02:46:22;;;;;;;1.70;1.40;;;15.60;62.30;;;;;;4959303;28;20109;-81
2022/08/07 02:48:47;;;;;;;1.70;1.07;;;15.60;62.50;;;;;;4941599;28;20395;-80
2022/08/07 02:51:18;;;;;;;2.30;1.17;;;15.60;62.40;;;;;;4951097;28;20034;-81
2022/08/07 02:53:52;;;;;;;2.05;1.10;;;15.60;62.70;;;;;;4959268;28;20022;-80
2022/08/07 02:56:20;;;;;;;2.05;1.10;;;15.50;62.50;;;;;;4954790;28;20029;-81
2022/08/07 02:58:48;;;;;;;1.77;1.03;;;15.50;62.50;;;;;;4961466;28;20026;-81
2022/08/07 03:01:16;;;;;;;1.33;1.10;;;15.50;62.70;;;;;;4966454;28;20112;-81
2022/08/07 03:03:42;;;;;;;1.52;1.20;;;15.40;62.80;;;;;;4948549;28;20250;-80
2022/08/07 03:06:09;;;;;;;2.00;1.23;;;15.40;62.90;;;;;;4973589;28;20183;-80
2022/08/07 03:08:36;;;;;;;2.00;1.20;;;15.40;62.90;;;;;;4960240;28;20037;-80
2022/08/07 03:11:03;;;;;;;1.83;1.20;;;15.30;63.10;;;;;;4942929;28;20680;-81
2022/08/07 03:13:29;;;;;;;1.35;1.10;;;15.30;63.20;;;;;;4967600;28;20033;-81
2022/08/07 03:15:55;;;;;;;2.05;1.20;;;15.30;63.30;;;;;;4955612;28;20692;-80
2022/08/07 03:18:21;;;;;;;1.90;1.30;;;15.20;63.40;;;;;;4935765;28;20380;-80
2022/08/07 03:20:47;;;;;;;1.67;1.20;;;15.20;63.40;;;;;;4964972;28;20413;-81
2022/08/07 03:23:13;;;;;;;1.48;1.20;;;15.20;63.40;;;;;;4944349;28;20031;-81
2022/08/07 03:25:40;;;;;;;2.58;1.38;;;15.20;63.60;;;;;;4968733;28;20410;-81
2022/08/07 03:28:10;;;;;;;2.42;1.35;;;15.20;63.60;;;;;;4955428;28;20578;-80
2022/08/07 03:30:37;;;;;;;1.92;1.35;;;15.10;63.90;;;;;;4967404;28;20041;-81
2022/08/07 03:33:03;;;;;;;2.20;1.40;;;15.10;63.70;;;;;;4954212;28;20540;-81
2022/08/07 03:35:30;;;;;;;2.33;1.30;;;15.00;63.90;;;;;;4942384;28;20504;-81
2022/08/07 03:38:00;;;;;;;2.28;1.40;;;15.10;64.00;;;;;;4954768;28;20537;-80
2022/08/07 03:40:27;;;;;;;1.65;1.20;;;15.00;64.30;;;;;;4957028;28;20483;-80
2022/08/07 03:42:54;;;;;;;2.22;1.33;;;15.00;64.30;;;;;;4957944;28;20030;-80
2022/08/07 03:45:21;;;;;;;2.20;1.47;;;15.00;64.20;;;;;;4962587;28;20034;-81
2022/08/07 03:47:48;;;;;;;1.70;1.30;;;15.00;65.20;;;;;;4957674;28;20023;-80
2022/08/07 03:50:16;;;;;;;2.13;1.38;;;15.00;64.70;;;;;;4939845;28;20042;-80
2022/08/07 03:52:44;;;;;;;2.45;1.60;;;15.00;64.70;;;;;;4964715;28;21821;-80
2022/08/07 03:55:10;;;;;;;2.20;1.50;;;15.00;64.90;;;;;;4949026;28;20145;-81
2022/08/07 03:57:36;;;;;;;2.20;1.33;;;14.90;64.80;;;;;;4957218;28;20095;-81
2022/08/07 04:00:03;;;;;;;1.98;1.42;;;14.90;64.80;;;;;;4955286;28;20137;-80
2022/08/07 04:02:29;;;;;;;2.50;1.58;;;14.90;64.80;;;;;;4968218;28;20034;-81
2022/08/07 04:04:55;;;;;;;1.92;1.35;;;14.90;64.90;;;;;;4941422;28;20045;-80
2022/08/07 04:07:21;;;;;;;1.67;1.30;;;14.90;64.80;;;;;;4967309;28;20038;-81
2022/08/07 04:09:48;;;;;;;2.50;1.52;;;14.90;64.90;;;;;;4948282;28;20038;-80
2022/08/07 04:12:14;;;;;;;2.60;1.73;;;14.90;65.00;;;;;;4952023;28;20378;-81
2022/08/07 04:14:40;;;;;;;2.65;1.60;;;14.80;65.10;;;;;;4957983;28;20073;-81
2022/08/07 04:17:07;;;;;;;1.80;1.38;;;14.80;65.20;;;;;;4944164;28;20240;-81
2022/08/07 04:19:32;;;;;;;1.50;1.30;;;14.70;65.20;;;;;;4977273;28;20026;-81
2022/08/07 04:21:58;;;;;;;2.08;1.52;;;14.70;65.30;;;;;;4950065;28;20624;-81
2022/08/07 04:24:25;;;;;;;1.97;1.50;;;14.70;65.50;;;;;;4956866;28;20395;-81
2022/08/07 04:26:51;;;;;;;2.50;1.58;;;14.60;65.60;;;;;;4957890;28;20038;-80
2022/08/07 04:29:17;;;;;;;2.55;1.60;;;14.70;65.70;;;;;;4957900;28;20465;-81
2022/08/07 04:31:44;;;;;;;4.80;1.70;;;14.60;65.70;;;;;;4946981;28;20531;-81
2022/08/07 04:34:10;;;;;;;2.00;1.60;;;14.60;65.80;;;;;;4953516;28;20577;-81
2022/08/07 04:36:36;;;;;;;2.35;1.60;;;14.60;65.90;;;;;;4965243;28;20022;-81
2022/08/07 04:39:04;;;;;;;2.33;1.55;;;14.60;65.90;;;;;;4931522;28;20376;-80
2022/08/07 04:41:30;;;;;;;2.37;1.60;;;14.60;66.10;;;;;;4965760;28;20530;-81
2022/08/07 04:43:56;;;;;;;2.60;1.70;;;14.70;66.20;;;;;;4935220;28;20030;-81
2022/08/07 04:46:27;;;;;;;2.45;1.77;;;14.60;66.30;;;;;;4936331;28;20530;-81
2022/08/07 04:49:41;;;;;;;3.05;1.77;;;14.60;66.80;;;;;;4951737;28;20566;-80
2022/08/07 04:52:23;;;;;;;2.88;1.88;;;14.60;67.20;;;;;;4905733;28;20202;-81
2022/08/07 04:55:19;;;;;;;3.57;1.67;;;14.70;67.10;;;;;;4901520;28;20032;-81
2022/08/07 04:57:59;;;;;;;2.50;1.90;;;14.70;67.90;;;;;;4952816;28;20041;-80
2022/08/07 05:00:42;;;;;;;2.40;1.77;;;14.70;67.40;;;;;;4960562;28;20125;-80
2022/08/07 05:03:22;;;;;;;2.80;2.00;;;14.70;68.10;;;;;;4952395;28;20077;-81
2022/08/07 05:05:59;;;;;;;2.67;1.90;;;14.70;67.60;;;;;;4964299;28;20443;-81
2022/08/07 05:08:31;;;;;;;3.17;1.90;;;14.80;67.80;;;;;;4947507;28;20094;-80
2022/08/07 05:11:04;;;;;;;2.85;1.88;;;14.80;68.00;;;;;;4942607;28;20026;-81
2022/08/07 05:13:35;;;;;;;3.05;1.88;;;14.90;68.00;;;;;;4949040;28;20038;-80
2022/08/07 05:16:04;;;;;;;2.65;1.95;;;14.90;67.70;;;;;;4960433;28;20479;-81
2022/08/07 05:18:38;;;;;;;3.20;1.95;;;15.00;68.00;;;;;;4943905;28;20081;-80
2022/08/07 05:21:08;;;;;;;3.17;1.77;;;15.00;68.30;;;;;;4969350;28;20022;-81
2022/08/07 05:23:47;;;;;;;3.65;2.08;;;15.10;68.20;;;;;;4957343;28;20220;-81
2022/08/07 05:26:19;;;;;;;3.30;1.92;;;15.10;69.30;;;;;;4926992;28;20616;-81
2022/08/07 05:28:49;;;;;;;3.63;2.28;;;15.20;68.80;;;;;;4955968;28;20125;-80
2022/08/07 05:31:18;;;;;;;3.55;2.35;;;15.20;68.70;;;;;;4963564;28;20443;-81
2022/08/07 05:33:45;;;;;;;2.90;2.00;;;15.30;68.80;;;;;;4935368;28;20256;-81
2022/08/07 05:36:12;;;;;;;3.97;1.95;;;15.30;68.80;;;;;;4954492;28;20030;-80
2022/08/07 05:38:40;;;;;;;3.33;2.22;;;15.40;69.00;;;;;;4957570;28;20023;-81
2022/08/07 05:41:06;;;;;;;3.05;2.17;;;15.50;69.20;;;;;;4938928;28;20223;-81
2022/08/07 05:43:33;;;;;;;3.60;2.40;;;15.50;69.20;;;;;;4935186;28;20287;-81
2022/08/07 05:46:01;;;;;;;3.23;2.17;;;15.60;69.30;;;;;;4964489;28;20073;-80
2022/08/07 05:48:28;;;;;;;4.22;2.35;;;15.60;69.40;;;;;;4940429;28;20023;-79
2022/08/07 05:50:59;;;;;;;3.75;2.35;;;15.70;69.60;;;;;;4953653;28;20026;-80
2022/08/07 05:53:26;;;;;;;3.25;2.25;;;15.80;69.70;;;;;;4954273;28;20053;-81
2022/08/07 05:55:53;;;;;;;4.07;2.38;;;15.80;69.70;;;;;;4936990;28;20031;-81
2022/08/07 05:58:22;;;;;;;3.23;2.27;;;15.90;69.90;;;;;;4946395;28;20204;-81
2022/08/07 06:00:50;;;;;;;3.67;2.05;;;16.00;70.00;;;;;;4948079;28;20121;-81
2022/08/07 06:03:18;;;;;;;3.72;2.58;;;16.00;70.00;;;;;;4960111;28;20027;-81
2022/08/07 06:05:46;;;;;;;3.88;2.63;;;16.10;70.00;;;;;;4969461;28;20039;-81
2022/08/07 06:08:13;;;;;;;4.03;2.25;;;16.20;70.10;;;;;;4950743;28;20113;-81
2022/08/07 06:10:39;;;;;;;3.87;2.30;;;16.30;70.20;;;;;;4937814;28;20111;-81
2022/08/07 06:13:05;;;;;;;3.63;2.10;;;16.30;70.10;;;;;;4950327;28;20480;-81
2022/08/07 06:15:34;;;;;;;3.92;2.20;;;16.40;70.20;;;;;;4944954;28;20035;-81
2022/08/07 06:18:01;;;;;;;2.65;2.13;;;16.40;70.60;;;;;;4961184;28;20141;-81
2022/08/07 06:20:28;;;;;;;3.73;2.10;;;16.50;70.40;;;;;;4952879;28;20035;-81
2022/08/07 06:22:56;;;;;;;3.10;2.30;;;16.60;70.30;;;;;;4965987;28;20014;-80
2022/08/07 06:25:22;;;;;;;3.00;2.22;;;16.70;70.60;;;;;;4957244;28;20054;-81
2022/08/07 06:27:48;;;;;;;3.10;2.05;;;16.80;70.40;;;;;;4919945;28;20023;-80
2022/08/07 06:30:14;;;;;;;3.53;2.50;;;16.90;70.30;;;;;;4956371;28;20038;-80
2022/08/07 06:32:39;;;;;;;3.50;2.03;;;16.90;70.30;;;;;;4964724;28;20037;-81
2022/08/07 06:35:06;;;;;;;3.20;2.30;;;17.10;70.50;;;;;;4944869;28;20042;-80
2022/08/07 06:37:31;;;;;;;3.78;2.20;;;17.10;70.50;;;;;;4952374;28;20033;-81
2022/08/07 06:39:57;;;;;;;3.40;2.30;;;17.20;70.60;;;;;;4957177;28;20028;-81
2022/08/07 06:42:28;;;;;;;2.77;1.80;;;17.30;70.60;;;;;;4937923;28;20217;-81
2022/08/07 06:44:56;;;;;;;2.72;1.80;;;17.40;70.70;;;;;;4961020;28;20034;-80
2022/08/07 06:47:22;;;;;;;2.90;1.92;;;17.50;70.70;;;;;;4952131;28;20035;-81
2022/08/07 06:49:48;;;;;;;4.43;1.83;;;17.60;70.60;;;;;;4964795;28;20030;-80
2022/08/07 06:52:15;;;;;;;3.75;1.90;;;17.70;70.60;;;;;;4949978;28;21501;-80
2022/08/07 06:54:43;;;;;;;4.73;2.13;;;17.80;70.70;;;;;;4972293;28;20163;-81
2022/08/07 06:57:10;;;;;;;3.92;2.25;;;17.90;70.60;;;;;;4961954;28;20037;-80
2022/08/07 06:59:39;;;;;;;3.65;1.83;;;18.00;70.60;;;;;;4925148;28;20262;-81
2022/08/07 07:02:14;;;;;;;2.80;1.80;;;18.10;70.60;;;;;;4952420;28;20039;-80
2022/08/07 07:04:42;;;;;;;2.65;1.83;;;18.20;70.50;;;;;;4948178;28;20348;-80
2022/08/07 07:07:08;;;;;;;3.00;1.90;;;18.30;70.40;;;;;;4955883;28;20058;-80
2022/08/07 07:09:33;;;;;;;3.05;2.00;;;18.50;70.40;;;;;;4937639;28;20455;-79
2022/08/07 07:12:05;;;;;;;3.60;2.00;;;18.50;70.30;;;;;;4951836;28;20816;-80
2022/08/07 07:14:56;;;;;;;3.58;2.08;;;18.70;70.10;;;;;;4932829;28;20053;-79
2022/08/07 07:17:40;;;;;;;2.88;1.90;;;18.80;69.80;;;;;;4947276;28;20031;-80
2022/08/07 07:20:15;;;;;;;4.10;1.90;;;18.90;69.90;;;;;;4965240;28;20571;-80
2022/08/07 07:22:43;;;;;;;2.92;1.95;;;19.10;69.80;;;;;;4923602;28;20049;-80
2022/08/07 07:25:11;;;;;;;3.20;1.80;;;19.10;69.60;;;;;;4965813;28;20022;-80
2022/08/07 07:27:47;;;;;;;3.75;2.00;;;19.20;69.30;;;;;;4961863;28;20053;-81
2022/08/07 07:30:13;;;;;;;3.05;2.10;;;19.40;69.50;;;;;;4927376;28;20644;-80
2022/08/07 07:32:41;;;;;;;3.08;1.85;;;19.50;69.10;;;;;;4950484;28;20042;-80
2022/08/07 07:35:10;;;;;;;3.72;2.00;;;19.50;69.10;;;;;;4962854;28;20038;-81
2022/08/07 07:37:38;;;;;;;3.60;1.70;;;19.70;69.30;;;;;;4946242;28;20069;-81
2022/08/07 07:40:16;;;;;;;3.28;1.80;;;19.80;69.10;;;;;;4954657;28;20015;-80
2022/08/07 07:42:49;;;;;;;3.63;1.77;;;19.90;68.70;;;;;;4958511;28;20038;-79
2022/08/07 07:45:16;;;;;;;3.50;1.77;;;20.00;68.50;;;;;;4924278;28;20066;-80
2022/08/07 07:47:43;;;;;;;3.00;1.90;;;20.10;68.60;;;;;;4949966;28;20425;-81
2022/08/07 07:50:12;;;;;;;2.87;1.90;;;20.30;68.40;;;;;;4964088;28;21189;-81
2022/08/07 07:52:39;;;;;;;3.22;1.85;;;20.40;68.30;;;;;;4969538;28;20061;-80
2022/08/07 07:55:08;;;;;;;2.15;1.52;;;20.50;68.30;;;;;;4967542;28;20121;-81
2022/08/07 07:57:34;;;;;;;3.50;1.70;;;20.70;68.40;;;;;;4946035;28;20396;-80
2022/08/07 08:00:01;;;;;;;4.72;1.90;;;20.80;69.00;;;;;;4960955;28;20502;-80
2022/08/07 08:02:29;;;;;;;2.87;1.70;;;21.10;69.60;;;;;;4920696;28;20428;-79
2022/08/07 08:04:55;;;;;;;2.55;1.60;;;21.40;69.50;;;;;;4957968;28;20711;-80
2022/08/07 08:07:23;;;;;;;2.28;1.65;;;21.70;69.20;;;;;;4954089;28;20625;-80
2022/08/07 08:09:52;;;;;;;2.63;1.52;;;21.90;68.70;;;;;;4950570;28;20720;-81
2022/08/07 08:12:18;;;;;;;2.20;1.70;;;22.20;68.20;;;;;;4946589;28;20037;-80
2022/08/07 08:14:44;;;;;;;3.37;1.87;;;22.40;68.30;;;;;;4925103;28;20288;-80
2022/08/07 08:17:12;;;;;;;4.25;1.73;;;22.60;68.50;;;;;;4934569;28;20109;-80
2022/08/07 08:19:40;;;;;;;2.60;1.70;;;22.90;68.60;;;;;;4946058;28;20705;-80
2022/08/07 08:27:42;;;;;;;2.80;1.80;;;23.90;68.90;;;;;;4946562;28;20467;-80
2022/08/07 08:30:11;;;;;;;2.53;1.63;;;24.50;69.60;;;;;;4952325;28;20039;-81
2022/08/07 08:32:45;;;;;;;2.10;1.50;;;24.90;69.70;;;;;;4929646;28;20026;-81
2022/08/07 08:35:16;;;;;;;2.20;1.50;;;25.40;68.30;;;;;;4963145;28;20093;-81
2022/08/07 08:37:45;;;;;;;2.25;1.73;;;26.00;69.10;;;;;;4949950;28;20031;-80
2022/08/07 08:40:22;;;;;;;2.17;1.50;;;26.60;68.70;;;;;;4952857;28;20023;-80
2022/08/07 08:43:08;;;;;;;1.50;1.30;;;27.20;66.40;;;;;;4937644;28;20966;-79
2022/08/07 08:45:37;;;;;;;2.00;1.67;;;27.90;63.80;;;;;;4935961;28;20669;-79
2022/08/07 08:48:36;;;;;;;1.80;1.50;;;28.40;65.20;;;;;;4921351;28;20504;-80
2022/08/07 08:51:24;;;;;;;2.53;1.60;;;29.00;61.60;;;;;;4948392;28;20038;-79
2022/08/07 08:54:05;;;;;;;1.80;1.60;;;29.60;62.40;;;;;;4957327;28;20081;-80
2022/08/07 08:56:40;;;;;;;2.38;1.58;;;30.10;60.50;;;;;;4955121;28;20220;-80
2022/08/07 08:59:18;;;;;;;2.45;1.70;;;30.60;60.10;;;;;;4936454;28;20045;-80
2022/08/07 09:02:25;;;;;;;1.65;1.52;;;30.90;58.20;;;;;;4977950;28;20563;-81
2022/08/07 09:05:01;;;;;;;1.67;1.52;;;31.40;58.00;;;;;;4954287;28;20030;-80
2022/08/07 09:07:58;;;;;;;3.07;1.43;;;31.80;59.00;;;;;;4934062;28;20214;-81
2022/08/07 09:10:31;;;;;;;1.75;1.50;;;32.20;54.90;;;;;;4949000;28;20020;-80
2022/08/07 09:13:21;;;;;;;2.65;1.50;;;32.50;57.90;;;;;;4948705;28;20707;-81
2022/08/07 09:16:13;;;;;;;1.80;1.60;;;32.80;56.80;;;;;;4934553;28;20031;-81
2022/08/07 09:18:56;;;;;;;1.70;1.60;;;33.10;54.10;;;;;;4942089;28;20618;-80
2022/08/07 09:22:16;;;;;;;2.53;1.40;;;33.30;52.40;;;;;;4931530;28;20387;-81
2022/08/07 09:25:05;;;;;;;2.25;1.58;;;33.60;51.50;;;;;;4913478;29;20027;-80
2022/08/07 09:27:51;;;;;;;1.88;1.70;;;33.80;49.80;;;;;;4948078;28;20587;-80
2022/08/07 09:30:17;;;;;;;1.92;1.80;;;34.10;50.00;;;;;;4939638;28;20031;-80
2022/08/07 09:33:11;;;;;;;2.20;2.00;;;34.30;52.90;;;;;;4954714;28;20018;-80
2022/08/07 09:35:42;;;;;;;1.87;1.57;;;34.60;49.10;;;;;;4933674;28;22155;-80
2022/08/07 09:38:27;;;;;;;1.88;1.45;;;34.90;49.00;;;;;;4947186;28;20027;-79
2022/08/07 09:41:19;;;;;;;1.73;1.63;;;35.10;48.10;;;;;;4953738;28;20141;-80
2022/08/07 09:43:55;;;;;;;1.80;1.60;;;35.40;46.60;;;;;;4943484;28;20053;-80
2022/08/07 09:46:57;;;;;;;1.90;1.80;;;35.50;46.70;;;;;;4952635;28;20034;-80
2022/08/07 09:49:51;;;;;;;1.60;1.40;;;35.70;45.20;;;;;;4935405;28;20430;-80
2022/08/07 09:52:32;;;;;;;1.60;1.50;;;35.80;45.10;;;;;;4935643;28;20034;-80
2022/08/07 09:55:08;;;;;;;1.90;1.52;;;36.00;44.40;;;;;;4944637;28;20043;-80
2022/08/07 09:58:10;;;;;;;1.83;1.73;;;36.10;45.70;;;;;;4948548;28;20038;-80
2022/08/07 10:01:01;;;;;;;1.67;1.58;;;36.20;43.40;;;;;;4956851;28;20037;-79
2022/08/07 10:03:51;;;;;;;1.63;1.53;;;36.40;45.00;;;;;;4962858;28;20102;-79
2022/08/07 10:06:20;;;;;;;1.92;1.67;;;36.50;43.70;;;;;;4920349;28;20039;-80
2022/08/07 10:09:13;;;;;;;2.10;1.90;;;36.60;43.10;;;;;;4939158;28;20038;-80
2022/08/07 10:11:50;;;;;;;1.60;1.40;;;36.70;41.10;;;;;;4929925;28;20716;-80
2022/08/07 10:14:45;;;;;;;2.00;1.80;;;36.70;42.70;;;;;;4929756;28;20050;-80
2022/08/07 10:17:23;;;;;;;2.30;1.40;;;36.80;41.20;;;;;;4951041;28;20035;-80
2022/08/07 10:20:22;;;;;;;1.50;1.40;;;37.00;40.60;;;;;;4958662;28;20035;-80
2022/08/07 10:23:33;;;;;;;1.80;1.70;;;37.00;40.10;;;;;;4960693;28;20050;-80
2022/08/07 10:26:19;;;;;;;2.10;1.48;;;37.10;39.50;;;;;;4954801;28;20090;-80
2022/08/07 10:29:00;;;;;;;1.90;1.70;;;37.10;39.10;;;;;;4951188;28;20116;-80
2022/08/07 10:31:47;;;;;;;2.63;1.73;;;37.20;38.60;;;;;;4947546;28;20065;-79
2022/08/07 10:34:12;;;;;;;1.63;1.52;;;37.30;38.30;;;;;;4967873;28;20042;-80
2022/08/07 10:36:55;;;;;;;1.85;1.60;;;37.30;40.30;;;;;;4938457;28;20303;-79
2022/08/07 10:39:34;;;;;;;2.13;1.93;;;37.30;38.30;;;;;;4961591;28;20041;-80
2022/08/07 10:42:14;;;;;;;1.77;1.63;;;37.30;37.80;;;;;;4952305;28;20031;-80
2022/08/07 10:44:50;;;;;;;1.90;1.80;;;37.50;37.60;;;;;;4958309;28;20315;-80
2022/08/07 10:48:11;;;;;;;2.50;1.63;;;37.60;37.80;;;;;;4935984;28;20050;-79
2022/08/07 10:51:21;;;;;;;1.77;1.67;;;37.70;36.60;;;;;;4942355;28;20038;-80
2022/08/07 10:54:17;;;;;;;2.50;1.93;;;37.80;36.70;;;;;;4956665;28;20038;-80
2022/08/07 10:57:11;;;;;;;1.90;1.77;;;37.90;37.30;;;;;;4946584;28;20391;-80
2022/08/07 11:00:09;;;;;;;2.60;1.75;;;38.00;37.90;;;;;;4969483;28;20570;-80
2022/08/07 11:03:22;;;;;;;1.75;1.63;;;38.10;36.00;;;;;;4949515;28;20035;-80
2022/08/07 11:06:44;;;;;;;2.05;1.85;;;38.30;35.80;;;;;;4965921;28;20066;-81
2022/08/07 11:09:39;;;;;;;2.17;1.97;;;38.50;35.40;;;;;;4966172;28;20023;-80
2022/08/07 11:12:37;;;;;;;1.83;1.73;;;38.70;36.50;;;;;;4941569;28;20042;-81
2022/08/07 11:15:26;;;;;;;1.92;1.55;;;38.80;34.90;;;;;;4960325;28;20038;-81
2022/08/07 11:18:20;;;;;;;2.00;1.80;;;38.90;36.70;;;;;;4948190;28;20038;-80
2022/08/07 11:21:23;;;;;;;1.88;1.75;;;38.90;34.70;;;;;;4966154;28;20221;-81
2022/08/07 11:24:26;;;;;;;2.10;2.00;;;39.00;34.40;;;;;;4951762;28;20195;-80
2022/08/07 11:27:21;;;;;;;2.00;1.90;;;39.10;35.30;;;;;;4957142;28;20319;-80
2022/08/07 11:30:13;;;;;;;2.10;2.00;;;39.20;34.70;;;;;;4966170;28;20307;-81
2022/08/07 11:33:38;;;;;;;2.30;1.90;;;39.40;34.70;;;;;;4965439;28;20030;-80
2022/08/07 11:36:36;;;;;;;2.70;1.90;;;39.50;33.30;;;;;;4950829;28;20043;-81
2022/08/07 11:39:36;;;;;;;2.00;1.90;;;39.60;33.90;;;;;;4943678;28;20034;-82
2022/08/07 11:42:29;;;;;;;1.50;1.40;;;39.70;32.30;;;;;;4959468;28;20510;-80
2022/08/07 11:45:29;;;;;;;2.20;1.80;;;39.90;32.80;;;;;;4962962;28;20155;-80
2022/08/07 11:48:48;;;;;;;1.70;1.60;;;40.00;32.50;;;;;;4976167;28;20196;-80
2022/08/07 11:51:42;;;;;;;2.00;1.83;;;40.00;31.30;;;;;;4956906;28;20404;-82
2022/08/07 11:54:46;;;;;;;2.00;1.90;;;40.00;31.50;;;;;;4936903;28;20030;-80
2022/08/07 11:57:32;;;;;;;2.10;1.90;;;40.10;31.10;;;;;;4967905;28;20023;-81
2022/08/07 12:00:44;;;;;;;1.65;1.55;;;40.10;32.70;;;;;;4941389;28;20027;-81
2022/08/07 12:03:56;;;;;;;1.60;1.50;;;40.10;30.90;;;;;;4932827;28;20030;-82
2022/08/07 12:07:20;;;;;;;2.03;1.83;;;40.00;30.10;;;;;;4940263;28;20782;-79
2022/08/07 12:10:16;;;;;;;1.97;1.80;;;40.00;30.00;;;;;;4951971;28;20511;-80
2022/08/07 12:13:10;;;;;;;1.60;1.50;;;39.90;31.20;;;;;;4951675;28;20033;-80
2022/08/07 12:16:27;;;;;;;1.75;1.65;;;39.90;31.00;;;;;;4973246;28;20141;-80
2022/08/07 12:19:32;;;;;;;1.63;1.52;;;39.90;30.30;;;;;;4957627;28;20038;-80
2022/08/07 12:22:34;;;;;;;1.65;1.55;;;40.00;30.40;;;;;;4954293;28;20400;-80
2022/08/07 12:28:58;;;;;;;1.52;1.42;;;40.10;29.90;;;;;;4948958;28;20034;-79
2022/08/07 12:31:57;;;;;;;1.45;1.35;;;40.10;28.60;;;;;;4962143;28;20593;-81
2022/08/07 12:34:44;;;;;;;1.67;1.58;;;40.00;29.30;;;;;;4956014;28;20145;-82
2022/08/07 12:37:32;;;;;;;2.22;1.60;;;39.90;30.10;;;;;;4945010;28;20089;-81
2022/08/07 12:40:22;;;;;;;1.67;1.57;;;39.90;29.80;;;;;;4961450;28;20023;-82
2022/08/07 12:43:10;;;;;;;1.65;1.48;;;39.80;29.50;;;;;;4940183;28;20030;-81
2022/08/07 12:46:21;;;;;;;2.10;1.50;;;39.70;29.40;;;;;;4958405;28;20034;-80
2022/08/07 12:49:40;;;;;;;1.60;1.50;;;39.70;28.80;;;;;;4970494;28;20558;-80
2022/08/07 12:52:47;;;;;;;1.67;1.58;;;39.70;29.00;;;;;;4969840;28;20038;-79
2022/08/07 12:55:42;;;;;;;2.03;1.70;;;39.70;28.90;;;;;;4966238;28;20617;-79
2022/08/07 12:58:36;;;;;;;1.42;1.33;;;39.70;28.80;;;;;;4930077;28;20041;-81
2022/08/07 13:01:25;;;;;;;1.75;1.40;;;39.60;28.70;;;;;;4928481;28;20027;-80
2022/08/07 13:04:31;;;;;;;1.40;1.30;;;39.50;28.80;;;;;;4948400;28;20120;-80
2022/08/07 13:07:50;;;;;;;1.60;1.50;;;39.50;28.30;;;;;;4957581;28;20050;-80
2022/08/07 13:11:07;;;;;;;1.20;1.10;;;39.60;27.90;;;;;;4953177;28;20039;-80
2022/08/07 13:14:08;;;;;;;1.70;1.60;;;39.70;28.30;;;;;;4924515;28;20093;-79
2022/08/07 13:17:16;;;;;;;1.30;1.20;;;39.70;29.60;;;;;;4933955;28;20034;-80
2022/08/07 13:20:22;;;;;;;1.35;1.25;;;39.70;28.00;;;;;;4953959;28;20031;-80
2022/08/07 13:23:25;;;;;;;1.38;1.27;;;39.90;28.80;;;;;;4949899;28;20454;-80
2022/08/07 13:26:49;;;;;;;1.57;1.47;;;39.90;28.60;;;;;;4951858;28;20047;-80
2022/08/07 13:29:37;;;;;;;1.80;1.27;;;39.90;27.90;;;;;;4945917;28;20400;-80
2022/08/07 13:32:42;;;;;;;1.70;1.45;;;39.90;29.00;;;;;;4942667;28;20046;-80
2022/08/07 13:35:37;;;;;;;1.50;1.40;;;39.80;28.10;;;;;;4965118;28;20046;-80
2022/08/07 13:38:48;;;;;;;1.40;1.30;;;39.90;28.50;;;;;;4955999;28;20117;-80
2022/08/07 13:41:42;;;;;;;1.50;1.40;;;39.90;28.00;;;;;;4963886;28;20038;-80
2022/08/07 13:44:33;;;;;;;1.45;1.30;;;39.90;27.90;;;;;;4926725;28;20395;-81
2022/08/07 13:47:20;;;;;;;1.40;1.30;;;39.90;28.20;;;;;;4937634;28;20038;-79
2022/08/07 13:50:08;;;;;;;1.52;1.42;;;39.80;27.80;;;;;;4965623;28;20022;-80